sensor_id;sensor_type;location;lat;lon;timestamp;temperature;humidity
56103;DHT22;41970;48.774;9.280;2023-04-03T00:01:36;6.00;99.90
56103;DHT22;41970;48.774;9.280;2023-04-03T00:04:04;5.80;99.90
56103;DHT22;41970;48.774;9.280;2023-04-03T00:06:31;5.80;99.90
56103;DHT22;41970;48.774;9.280;2023-04-03T00:08:56;5.80;99.90
56103;DHT22;41970;48.774;9.280;2023-04-03T00:11:22;5.70;99.90
56103;DHT22;41970;48.774;9.280;2023-04-03T00:13:48;5.80;99.90
56103;DHT22;41970;48.774;9.280;2023-04-03T00:16:14;5.70;99.90
56103;DHT22;41970;48.774;9.280;2023-04-03T00:18:40;5.80;99.90
56103;DHT22;41970;48.774;9.280;2023-04-03T00:21:07;5.80;99.90
56103;DHT22;41970;48.774;9.280;2023-04-03T00:23:34;5.90;99.90
56103;DHT22;41970;48.774;9.280;2023-04-03T00:26:00;6.00;99.90
56103;DHT22;41970;48.774;9.280;2023-04-03T00:28:26;6.00;99.90
56103;DHT22;41970;48.774;9.280;2023-04-03T00:30:52;6.20;99.90
56103;DHT22;41970;48.774;9.280;2023-04-03T00:33:18;6.20;99.90
56103;DHT22;41970;48.774;9.280;2023-04-03T00:35:47;6.20;99.90
56103;DHT22;41970;48.774;9.280;2023-04-03T00:38:14;6.00;99.50
56103;DHT22;41970;48.774;9.280;2023-04-03T00:40:44;6.00;99.90
56103;DHT22;41970;48.774;9.280;2023-04-03T00:43:21;6.10;99.90
56103;DHT22;41970;48.774;9.280;2023-04-03T00:45:49;6.10;99.90
56103;DHT22;41970;48.774;9.280;2023-04-03T00:48:40;6.20;99.90
56103;DHT22;41970;48.774;9.280;2023-04-03T00:51:07;6.20;99.70
56103;DHT22;41970;48.774;9.280;2023-04-03T00:53:40;6.20;99.80
56103;DHT22;41970;48.774;9.280;2023-04-03T00:56:09;6.10;99.90
56103;DHT22;41970;48.774;9.280;2023-04-03T00:58:51;6.10;99.80
56103;DHT22;41970;48.774;9.280;2023-04-03T01:01:21;6.10;99.90
56103;DHT22;41970;48.774;9.280;2023-04-03T01:03:48;6.00;99.90
56103;DHT22;41970;48.774;9.280;2023-04-03T01:06:16;6.00;99.90
56103;DHT22;41970;48.774;9.280;2023-04-03T01:08:43;6.00;99.90
56103;DHT22;41970;48.774;9.280;2023-04-03T01:11:09;6.00;99.90
56103;DHT22;41970;48.774;9.280;2023-04-03T01:13:35;5.90;99.90
56103;DHT22;41970;48.774;9.280;2023-04-03T01:16:02;5.90;99.90
56103;DHT22;41970;48.774;9.280;2023-04-03T01:18:29;5.90;99.90
56103;DHT22;41970;48.774;9.280;2023-04-03T01:26:05;5.70;99.90
56103;DHT22;41970;48.774;9.280;2023-04-03T01:28:34;5.80;99.90
56103;DHT22;41970;48.774;9.280;2023-04-03T01:31:25;5.80;99.90
56103;DHT22;41970;48.774;9.280;2023-04-03T01:33:52;5.90;99.90
56103;DHT22;41970;48.774;9.280;2023-04-03T01:36:24;6.00;99.90
56103;DHT22;41970;48.774;9.280;2023-04-03T01:38:51;6.10;99.90
56103;DHT22;41970;48.774;9.280;2023-04-03T01:41:17;6.10;99.90
56103;DHT22;41970;48.774;9.280;2023-04-03T01:43:43;6.30;99.80
56103;DHT22;41970;48.774;9.280;2023-04-03T01:46:09;6.30;99.60
56103;DHT22;41970;48.774;9.280;2023-04-03T01:48:35;6.30;99.50
56103;DHT22;41970;48.774;9.280;2023-04-03T01:51:01;6.30;99.50
56103;DHT22;41970;48.774;9.280;2023-04-03T01:53:27;6.30;99.00
56103;DHT22;41970;48.774;9.280;2023-04-03T01:55:59;6.30;99.70
56103;DHT22;41970;48.774;9.280;2023-04-03T01:58:24;6.30;99.00
56103;DHT22;41970;48.774;9.280;2023-04-03T02:00:51;6.30;98.60
56103;DHT22;41970;48.774;9.280;2023-04-03T02:03:17;6.30;98.70
56103;DHT22;41970;48.774;9.280;2023-04-03T02:05:43;6.40;99.10
56103;DHT22;41970;48.774;9.280;2023-04-03T02:08:09;6.40;98.60
56103;DHT22;41970;48.774;9.280;2023-04-03T02:10:35;6.50;98.60
56103;DHT22;41970;48.774;9.280;2023-04-03T02:13:00;6.40;97.90
56103;DHT22;41970;48.774;9.280;2023-04-03T02:15:26;6.40;97.90
56103;DHT22;41970;48.774;9.280;2023-04-03T02:17:52;6.40;97.70
56103;DHT22;41970;48.774;9.280;2023-04-03T02:20:18;6.40;98.30
56103;DHT22;41970;48.774;9.280;2023-04-03T02:22:44;6.40;97.90
56103;DHT22;41970;48.774;9.280;2023-04-03T02:25:10;6.40;98.20
56103;DHT22;41970;48.774;9.280;2023-04-03T02:27:36;6.40;98.50
56103;DHT22;41970;48.774;9.280;2023-04-03T02:30:03;6.50;97.90
56103;DHT22;41970;48.774;9.280;2023-04-03T02:32:29;6.40;97.70
56103;DHT22;41970;48.774;9.280;2023-04-03T02:34:55;6.40;98.10
56103;DHT22;41970;48.774;9.280;2023-04-03T02:37:21;6.40;98.00
56103;DHT22;41970;48.774;9.280;2023-04-03T02:39:47;6.40;98.00
56103;DHT22;41970;48.774;9.280;2023-04-03T02:42:13;6.50;98.00
56103;DHT22;41970;48.774;9.280;2023-04-03T02:44:38;6.50;97.70
56103;DHT22;41970;48.774;9.280;2023-04-03T02:47:04;6.60;97.60
56103;DHT22;41970;48.774;9.280;2023-04-03T02:49:31;6.50;97.50
56103;DHT22;41970;48.774;9.280;2023-04-03T02:51:57;6.60;97.50
56103;DHT22;41970;48.774;9.280;2023-04-03T02:54:23;6.60;97.40
56103;DHT22;41970;48.774;9.280;2023-04-03T02:56:53;6.50;97.40
56103;DHT22;41970;48.774;9.280;2023-04-03T02:59:18;6.50;97.10
56103;DHT22;41970;48.774;9.280;2023-04-03T03:01:44;6.50;98.10
56103;DHT22;41970;48.774;9.280;2023-04-03T03:04:10;6.50;97.70
56103;DHT22;41970;48.774;9.280;2023-04-03T03:06:37;6.40;97.70
56103;DHT22;41970;48.774;9.280;2023-04-03T03:09:03;6.40;97.70
56103;DHT22;41970;48.774;9.280;2023-04-03T03:11:29;6.40;97.50
56103;DHT22;41970;48.774;9.280;2023-04-03T03:13:55;6.40;97.60
56103;DHT22;41970;48.774;9.280;2023-04-03T03:16:21;6.40;97.60
56103;DHT22;41970;48.774;9.280;2023-04-03T03:18:47;6.40;98.00
56103;DHT22;41970;48.774;9.280;2023-04-03T03:21:13;6.40;97.60
56103;DHT22;41970;48.774;9.280;2023-04-03T03:23:39;6.40;97.30
56103;DHT22;41970;48.774;9.280;2023-04-03T03:26:08;6.40;97.60
56103;DHT22;41970;48.774;9.280;2023-04-03T03:28:35;6.50;97.70
56103;DHT22;41970;48.774;9.280;2023-04-03T03:31:02;6.50;97.60
56103;DHT22;41970;48.774;9.280;2023-04-03T03:33:28;6.50;97.20
56103;DHT22;41970;48.774;9.280;2023-04-03T03:35:54;6.50;98.30
56103;DHT22;41970;48.774;9.280;2023-04-03T03:38:20;6.50;97.70
56103;DHT22;41970;48.774;9.280;2023-04-03T03:40:47;6.50;97.20
56103;DHT22;41970;48.774;9.280;2023-04-03T03:43:14;6.60;98.00
56103;DHT22;41970;48.774;9.280;2023-04-03T03:45:40;6.50;97.80
56103;DHT22;41970;48.774;9.280;2023-04-03T03:48:06;6.60;96.80
56103;DHT22;41970;48.774;9.280;2023-04-03T03:50:32;6.50;97.00
56103;DHT22;41970;48.774;9.280;2023-04-03T03:52:58;6.50;97.60
56103;DHT22;41970;48.774;9.280;2023-04-03T03:55:24;6.50;97.30
56103;DHT22;41970;48.774;9.280;2023-04-03T03:57:50;6.50;98.50
56103;DHT22;41970;48.774;9.280;2023-04-03T04:00:16;6.50;97.90
56103;DHT22;41970;48.774;9.280;2023-04-03T04:02:43;6.50;98.50
56103;DHT22;41970;48.774;9.280;2023-04-03T04:05:08;6.40;98.10
56103;DHT22;41970;48.774;9.280;2023-04-03T04:07:34;6.40;98.50
56103;DHT22;41970;48.774;9.280;2023-04-03T04:10:00;6.40;97.70
56103;DHT22;41970;48.774;9.280;2023-04-03T04:12:26;6.40;97.90
56103;DHT22;41970;48.774;9.280;2023-04-03T04:14:52;6.50;97.60
56103;DHT22;41970;48.774;9.280;2023-04-03T04:17:18;6.50;97.40
56103;DHT22;41970;48.774;9.280;2023-04-03T04:19:43;6.40;97.50
56103;DHT22;41970;48.774;9.280;2023-04-03T04:22:09;6.50;97.40
56103;DHT22;41970;48.774;9.280;2023-04-03T04:24:35;6.60;98.20
56103;DHT22;41970;48.774;9.280;2023-04-03T04:27:00;6.70;97.50
56103;DHT22;41970;48.774;9.280;2023-04-03T04:29:26;6.70;96.90
56103;DHT22;41970;48.774;9.280;2023-04-03T04:31:53;6.70;97.00
56103;DHT22;41970;48.774;9.280;2023-04-03T04:34:18;6.70;96.90
56103;DHT22;41970;48.774;9.280;2023-04-03T04:36:44;6.80;96.70
56103;DHT22;41970;48.774;9.280;2023-04-03T04:39:10;6.70;96.70
56103;DHT22;41970;48.774;9.280;2023-04-03T04:41:36;6.70;96.80
56103;DHT22;41970;48.774;9.280;2023-04-03T04:44:02;6.70;96.70
56103;DHT22;41970;48.774;9.280;2023-04-03T04:46:27;6.70;96.30
56103;DHT22;41970;48.774;9.280;2023-04-03T04:48:53;6.80;96.80
56103;DHT22;41970;48.774;9.280;2023-04-03T04:51:19;6.80;96.80
56103;DHT22;41970;48.774;9.280;2023-04-03T04:53:45;6.80;97.80
56103;DHT22;41970;48.774;9.280;2023-04-03T04:56:11;6.80;96.10
56103;DHT22;41970;48.774;9.280;2023-04-03T04:58:37;6.50;96.00
56103;DHT22;41970;48.774;9.280;2023-04-03T05:01:07;6.50;96.50
56103;DHT22;41970;48.774;9.280;2023-04-03T05:03:33;6.60;96.60
56103;DHT22;41970;48.774;9.280;2023-04-03T05:05:59;6.50;96.30
56103;DHT22;41970;48.774;9.280;2023-04-03T05:08:25;6.40;96.50
56103;DHT22;41970;48.774;9.280;2023-04-03T05:10:51;6.50;96.60
56103;DHT22;41970;48.774;9.280;2023-04-03T05:13:18;6.50;96.50
56103;DHT22;41970;48.774;9.280;2023-04-03T05:15:45;6.50;96.40
56103;DHT22;41970;48.774;9.280;2023-04-03T05:18:11;6.50;96.60
56103;DHT22;41970;48.774;9.280;2023-04-03T05:20:37;6.50;96.50
56103;DHT22;41970;48.774;9.280;2023-04-03T05:23:03;6.50;96.60
56103;DHT22;41970;48.774;9.280;2023-04-03T05:25:29;6.40;96.10
56103;DHT22;41970;48.774;9.280;2023-04-03T05:27:55;6.30;96.50
56103;DHT22;41970;48.774;9.280;2023-04-03T05:30:21;6.20;96.30
56103;DHT22;41970;48.774;9.280;2023-04-03T05:32:47;6.20;96.50
56103;DHT22;41970;48.774;9.280;2023-04-03T05:35:13;6.30;96.60
56103;DHT22;41970;48.774;9.280;2023-04-03T05:37:39;6.40;96.90
56103;DHT22;41970;48.774;9.280;2023-04-03T05:40:06;6.40;96.80
56103;DHT22;41970;48.774;9.280;2023-04-03T05:42:32;6.30;95.60
56103;DHT22;41970;48.774;9.280;2023-04-03T05:44:58;6.30;95.80
56103;DHT22;41970;48.774;9.280;2023-04-03T05:47:24;6.20;96.00
56103;DHT22;41970;48.774;9.280;2023-04-03T05:49:49;6.30;96.80
56103;DHT22;41970;48.774;9.280;2023-04-03T05:52:26;6.50;96.10
56103;DHT22;41970;48.774;9.280;2023-04-03T05:54:52;6.50;95.80
56103;DHT22;41970;48.774;9.280;2023-04-03T05:57:18;6.50;95.90
56103;DHT22;41970;48.774;9.280;2023-04-03T05:59:45;6.50;96.90
56103;DHT22;41970;48.774;9.280;2023-04-03T06:02:13;6.40;95.70
56103;DHT22;41970;48.774;9.280;2023-04-03T06:04:39;6.40;96.30
56103;DHT22;41970;48.774;9.280;2023-04-03T06:07:06;6.50;96.40
56103;DHT22;41970;48.774;9.280;2023-04-03T06:09:33;6.60;96.60
56103;DHT22;41970;48.774;9.280;2023-04-03T06:11:59;6.40;96.20
56103;DHT22;41970;48.774;9.280;2023-04-03T06:14:25;6.50;96.50
56103;DHT22;41970;48.774;9.280;2023-04-03T06:16:52;6.60;96.30
56103;DHT22;41970;48.774;9.280;2023-04-03T06:19:18;6.60;96.90
56103;DHT22;41970;48.774;9.280;2023-04-03T06:21:44;6.70;96.70
56103;DHT22;41970;48.774;9.280;2023-04-03T06:24:14;6.70;98.00
56103;DHT22;41970;48.774;9.280;2023-04-03T06:26:41;6.70;95.60
56103;DHT22;41970;48.774;9.280;2023-04-03T06:29:07;6.70;96.40
56103;DHT22;41970;48.774;9.280;2023-04-03T06:31:32;6.60;95.50
56103;DHT22;41970;48.774;9.280;2023-04-03T06:33:58;6.60;96.90
56103;DHT22;41970;48.774;9.280;2023-04-03T06:36:24;6.70;96.30
56103;DHT22;41970;48.774;9.280;2023-04-03T06:38:50;6.80;96.00
56103;DHT22;41970;48.774;9.280;2023-04-03T06:41:16;6.70;95.70
56103;DHT22;41970;48.774;9.280;2023-04-03T06:43:43;6.80;96.00
56103;DHT22;41970;48.774;9.280;2023-04-03T06:46:20;6.80;97.20
56103;DHT22;41970;48.774;9.280;2023-04-03T06:48:47;6.70;97.40
56103;DHT22;41970;48.774;9.280;2023-04-03T06:51:22;6.50;96.50
56103;DHT22;41970;48.774;9.280;2023-04-03T06:53:49;6.30;95.60
56103;DHT22;41970;48.774;9.280;2023-04-03T06:56:16;6.10;95.80
56103;DHT22;41970;48.774;9.280;2023-04-03T06:58:42;5.60;96.10
56103;DHT22;41970;48.774;9.280;2023-04-03T07:01:10;5.50;98.10
56103;DHT22;41970;48.774;9.280;2023-04-03T07:03:37;5.40;97.10
56103;DHT22;41970;48.774;9.280;2023-04-03T07:06:04;5.50;98.20
56103;DHT22;41970;48.774;9.280;2023-04-03T07:08:31;5.60;99.00
56103;DHT22;41970;48.774;9.280;2023-04-03T07:10:57;5.70;97.70
56103;DHT22;41970;48.774;9.280;2023-04-03T07:13:23;5.80;98.40
56103;DHT22;41970;48.774;9.280;2023-04-03T07:15:49;5.80;96.90
56103;DHT22;41970;48.774;9.280;2023-04-03T07:18:15;5.90;97.90
56103;DHT22;41970;48.774;9.280;2023-04-03T07:20:43;5.90;97.30
56103;DHT22;41970;48.774;9.280;2023-04-03T07:23:09;5.90;98.40
56103;DHT22;41970;48.774;9.280;2023-04-03T07:25:35;6.00;98.10
56103;DHT22;41970;48.774;9.280;2023-04-03T07:28:02;6.10;97.60
56103;DHT22;41970;48.774;9.280;2023-04-03T07:30:27;6.20;98.20
56103;DHT22;41970;48.774;9.280;2023-04-03T07:32:53;6.20;97.30
56103;DHT22;41970;48.774;9.280;2023-04-03T07:35:19;6.10;96.70
56103;DHT22;41970;48.774;9.280;2023-04-03T07:37:45;5.70;97.70
56103;DHT22;41970;48.774;9.280;2023-04-03T07:40:11;5.80;97.70
56103;DHT22;41970;48.774;9.280;2023-04-03T07:42:38;5.50;97.90
56103;DHT22;41970;48.774;9.280;2023-04-03T07:45:04;5.70;98.60
56103;DHT22;41970;48.774;9.280;2023-04-03T07:47:30;5.90;98.70
56103;DHT22;41970;48.774;9.280;2023-04-03T07:49:57;5.90;97.20
56103;DHT22;41970;48.774;9.280;2023-04-03T07:52:24;5.80;97.80
56103;DHT22;41970;48.774;9.280;2023-04-03T07:54:50;5.80;98.50
56103;DHT22;41970;48.774;9.280;2023-04-03T07:57:16;5.90;97.90
56103;DHT22;41970;48.774;9.280;2023-04-03T07:59:46;6.00;98.20
56103;DHT22;41970;48.774;9.280;2023-04-03T08:02:12;6.10;97.40
56103;DHT22;41970;48.774;9.280;2023-04-03T08:04:38;6.20;97.70
56103;DHT22;41970;48.774;9.280;2023-04-03T08:07:05;6.00;96.90
56103;DHT22;41970;48.774;9.280;2023-04-03T08:09:31;5.80;97.80
56103;DHT22;41970;48.774;9.280;2023-04-03T08:11:58;5.80;98.00
56103;DHT22;41970;48.774;9.280;2023-04-03T08:14:24;6.00;97.60
56103;DHT22;41970;48.774;9.280;2023-04-03T08:16:50;6.10;97.50
56103;DHT22;41970;48.774;9.280;2023-04-03T08:19:16;6.20;98.60
56103;DHT22;41970;48.774;9.280;2023-04-03T08:21:43;6.30;97.90
56103;DHT22;41970;48.774;9.280;2023-04-03T08:24:09;6.40;97.10
56103;DHT22;41970;48.774;9.280;2023-04-03T08:26:35;6.50;97.30
56103;DHT22;41970;48.774;9.280;2023-04-03T08:29:01;6.40;96.60
56103;DHT22;41970;48.774;9.280;2023-04-03T08:31:27;6.00;96.40
56103;DHT22;41970;48.774;9.280;2023-04-03T08:33:53;5.70;97.00
56103;DHT22;41970;48.774;9.280;2023-04-03T08:36:22;5.60;97.40
56103;DHT22;41970;48.774;9.280;2023-04-03T08:38:49;5.70;97.40
56103;DHT22;41970;48.774;9.280;2023-04-03T08:41:27;5.70;97.60
56103;DHT22;41970;48.774;9.280;2023-04-03T08:52:26;6.00;97.40
56103;DHT22;41970;48.774;9.280;2023-04-03T08:54:58;6.10;97.60
56103;DHT22;41970;48.774;9.280;2023-04-03T08:57:33;6.30;98.30
56103;DHT22;41970;48.774;9.280;2023-04-03T09:00:05;6.30;97.40
56103;DHT22;41970;48.774;9.280;2023-04-03T09:02:46;6.40;97.80
56103;DHT22;41970;48.774;9.280;2023-04-03T09:05:18;6.30;97.30
56103;DHT22;41970;48.774;9.280;2023-04-03T09:08:31;6.30;97.30
56103;DHT22;41970;48.774;9.280;2023-04-03T09:10:33;6.40;98.20
56103;DHT22;41970;48.774;9.280;2023-04-03T09:13:12;6.60;97.60
56103;DHT22;41970;48.774;9.280;2023-04-03T09:15:44;6.80;97.60
56103;DHT22;41970;48.774;9.280;2023-04-03T09:18:22;6.90;97.30
56103;DHT22;41970;48.774;9.280;2023-04-03T09:21:24;7.10;96.80
56103;DHT22;41970;48.774;9.280;2023-04-03T09:23:59;7.20;97.30
56103;DHT22;41970;48.774;9.280;2023-04-03T09:26:29;7.30;95.80
56103;DHT22;41970;48.774;9.280;2023-04-03T09:28:59;7.20;96.50
56103;DHT22;41970;48.774;9.280;2023-04-03T09:31:29;7.20;97.20
56103;DHT22;41970;48.774;9.280;2023-04-03T09:34:03;7.30;96.80
56103;DHT22;41970;48.774;9.280;2023-04-03T09:36:44;7.30;96.20
56103;DHT22;41970;48.774;9.280;2023-04-03T09:39:16;7.10;95.70
56103;DHT22;41970;48.774;9.280;2023-04-03T09:42:04;7.10;95.70
56103;DHT22;41970;48.774;9.280;2023-04-03T09:44:36;7.20;95.80
56103;DHT22;41970;48.774;9.280;2023-04-03T09:47:25;7.20;95.10
56103;DHT22;41970;48.774;9.280;2023-04-03T09:49:56;7.30;95.50
56103;DHT22;41970;48.774;9.280;2023-04-03T09:52:34;7.10;94.50
56103;DHT22;41970;48.774;9.280;2023-04-03T09:55:07;7.00;96.10
56103;DHT22;41970;48.774;9.280;2023-04-03T09:57:33;7.10;95.10
56103;DHT22;41970;48.774;9.280;2023-04-03T10:00:01;7.00;93.90
56103;DHT22;41970;48.774;9.280;2023-04-03T10:02:39;6.50;94.40
56103;DHT22;41970;48.774;9.280;2023-04-03T10:05:38;6.50;95.30
56103;DHT22;41970;48.774;9.280;2023-04-03T10:08:09;6.60;95.00
56103;DHT22;41970;48.774;9.280;2023-04-03T10:10:35;6.80;95.60
56103;DHT22;41970;48.774;9.280;2023-04-03T10:13:25;6.80;94.50
56103;DHT22;41970;48.774;9.280;2023-04-03T10:15:59;6.90;94.70
56103;DHT22;41970;48.774;9.280;2023-04-03T10:18:41;6.90;93.70
56103;DHT22;41970;48.774;9.280;2023-04-03T10:32:45;7.10;92.90
56103;DHT22;41970;48.774;9.280;2023-04-03T10:41:07;6.40;94.50
56103;DHT22;41970;48.774;9.280;2023-04-03T10:46:18;6.60;94.70
56103;DHT22;41970;48.774;9.280;2023-04-03T10:48:49;6.70;94.50
56103;DHT22;41970;48.774;9.280;2023-04-03T10:54:29;6.70;93.70
56103;DHT22;41970;48.774;9.280;2023-04-03T10:57:05;6.50;94.00
56103;DHT22;41970;48.774;9.280;2023-04-03T11:04:39;6.90;93.90
56103;DHT22;41970;48.774;9.280;2023-04-03T11:07:22;7.00;94.30
56103;DHT22;41970;48.774;9.280;2023-04-03T11:09:53;7.20;94.00
56103;DHT22;41970;48.774;9.280;2023-04-03T11:12:42;7.20;92.70
56103;DHT22;41970;48.774;9.280;2023-04-03T11:15:20;7.00;92.00
56103;DHT22;41970;48.774;9.280;2023-04-03T11:17:58;6.80;92.00
56103;DHT22;41970;48.774;9.280;2023-04-03T11:20:29;6.90;93.10
56103;DHT22;41970;48.774;9.280;2023-04-03T11:23:11;7.00;92.50
56103;DHT22;41970;48.774;9.280;2023-04-03T11:25:40;7.20;94.30
56103;DHT22;41970;48.774;9.280;2023-04-03T11:28:13;7.30;93.40
56103;DHT22;41970;48.774;9.280;2023-04-03T11:36:29;7.10;89.50
56103;DHT22;41970;48.774;9.280;2023-04-03T11:38:58;7.20;91.20
56103;DHT22;41970;48.774;9.280;2023-04-03T11:41:30;7.20;89.10
56103;DHT22;41970;48.774;9.280;2023-04-03T11:44:30;7.20;91.00
56103;DHT22;41970;48.774;9.280;2023-04-03T11:47:00;7.30;90.80
56103;DHT22;41970;48.774;9.280;2023-04-03T11:49:52;6.90;89.60
56103;DHT22;41970;48.774;9.280;2023-04-03T11:52:55;6.80;88.90
56103;DHT22;41970;48.774;9.280;2023-04-03T12:00:56;6.80;91.40
56103;DHT22;41970;48.774;9.280;2023-04-03T12:13:37;7.40;90.40
56103;DHT22;41970;48.774;9.280;2023-04-03T12:16:07;7.30;91.60
56103;DHT22;41970;48.774;9.280;2023-04-03T12:27:01;7.00;88.30
56103;DHT22;41970;48.774;9.280;2023-04-03T12:29:34;6.90;90.40
56103;DHT22;41970;48.774;9.280;2023-04-03T12:35:21;7.10;91.50
56103;DHT22;41970;48.774;9.280;2023-04-03T12:46:52;7.10;88.50
56103;DHT22;41970;48.774;9.280;2023-04-03T12:49:38;7.10;91.10
56103;DHT22;41970;48.774;9.280;2023-04-03T12:52:30;7.20;91.50
56103;DHT22;41970;48.774;9.280;2023-04-03T12:54:52;7.20;90.30
56103;DHT22;41970;48.774;9.280;2023-04-03T12:57:21;7.40;91.10
56103;DHT22;41970;48.774;9.280;2023-04-03T12:59:47;7.30;88.10
56103;DHT22;41970;48.774;9.280;2023-04-03T13:02:26;7.20;88.20
56103;DHT22;41970;48.774;9.280;2023-04-03T13:04:58;7.30;89.80
56103;DHT22;41970;48.774;9.280;2023-04-03T13:07:29;7.40;90.80
56103;DHT22;41970;48.774;9.280;2023-04-03T13:12:26;7.60;90.10
56103;DHT22;41970;48.774;9.280;2023-04-03T13:14:58;7.70;90.20
56103;DHT22;41970;48.774;9.280;2023-04-03T13:17:25;8.00;89.30
56103;DHT22;41970;48.774;9.280;2023-04-03T13:19:51;7.70;86.90
56103;DHT22;41970;48.774;9.280;2023-04-03T13:25:11;7.30;89.00
56103;DHT22;41970;48.774;9.280;2023-04-03T13:27:39;7.20;87.60
56103;DHT22;41970;48.774;9.280;2023-04-03T13:30:25;7.20;88.40
56103;DHT22;41970;48.774;9.280;2023-04-03T13:32:52;7.20;88.70
56103;DHT22;41970;48.774;9.280;2023-04-03T13:35:45;7.40;89.00
56103;DHT22;41970;48.774;9.280;2023-04-03T13:38:31;7.50;90.50
56103;DHT22;41970;48.774;9.280;2023-04-03T13:41:02;7.40;88.60
56103;DHT22;41970;48.774;9.280;2023-04-03T13:43:36;7.50;90.00
56103;DHT22;41970;48.774;9.280;2023-04-03T13:48:49;7.80;88.00
56103;DHT22;41970;48.774;9.280;2023-04-03T13:54:00;7.60;87.40
56103;DHT22;41970;48.774;9.280;2023-04-03T13:56:34;7.80;87.30
56103;DHT22;41970;48.774;9.280;2023-04-03T14:01:45;7.80;85.30
56103;DHT22;41970;48.774;9.280;2023-04-03T14:04:24;7.90;87.00
56103;DHT22;41970;48.774;9.280;2023-04-03T14:06:51;7.90;87.60
56103;DHT22;41970;48.774;9.280;2023-04-03T14:09:19;8.00;86.10
56103;DHT22;41970;48.774;9.280;2023-04-03T14:11:46;8.10;86.50
56103;DHT22;41970;48.774;9.280;2023-04-03T14:14:19;8.10;84.10
56103;DHT22;41970;48.774;9.280;2023-04-03T14:16:51;8.10;84.20
56103;DHT22;41970;48.774;9.280;2023-04-03T14:19:21;8.10;86.40
56103;DHT22;41970;48.774;9.280;2023-04-03T14:21:47;8.00;82.50
56103;DHT22;41970;48.774;9.280;2023-04-03T14:24:13;8.00;85.40
56103;DHT22;41970;48.774;9.280;2023-04-03T14:26:40;8.10;86.50
56103;DHT22;41970;48.774;9.280;2023-04-03T14:29:06;8.00;80.90
56103;DHT22;41970;48.774;9.280;2023-04-03T14:31:32;7.80;81.90
56103;DHT22;41970;48.774;9.280;2023-04-03T14:33:57;7.70;81.60
56103;DHT22;41970;48.774;9.280;2023-04-03T14:36:25;7.70;82.80
56103;DHT22;41970;48.774;9.280;2023-04-03T14:38:52;7.80;83.10
56103;DHT22;41970;48.774;9.280;2023-04-03T14:41:22;7.90;84.50
56103;DHT22;41970;48.774;9.280;2023-04-03T14:43:48;8.10;84.80
56103;DHT22;41970;48.774;9.280;2023-04-03T14:46:22;8.10;83.60
56103;DHT22;41970;48.774;9.280;2023-04-03T14:48:49;7.70;84.20
56103;DHT22;41970;48.774;9.280;2023-04-03T14:51:15;7.80;86.00
56103;DHT22;41970;48.774;9.280;2023-04-03T14:53:42;8.00;89.50
56103;DHT22;41970;48.774;9.280;2023-04-03T14:56:28;8.00;84.40
56103;DHT22;41970;48.774;9.280;2023-04-03T14:58:59;7.90;82.70
56103;DHT22;41970;48.774;9.280;2023-04-03T15:01:26;7.80;83.00
56103;DHT22;41970;48.774;9.280;2023-04-03T15:03:52;7.70;86.30
56103;DHT22;41970;48.774;9.280;2023-04-03T15:06:18;7.70;83.20
56103;DHT22;41970;48.774;9.280;2023-04-03T15:08:46;7.70;84.80
56103;DHT22;41970;48.774;9.280;2023-04-03T15:11:13;7.90;85.10
56103;DHT22;41970;48.774;9.280;2023-04-03T15:13:39;8.10;86.30
56103;DHT22;41970;48.774;9.280;2023-04-03T15:16:14;8.10;83.40
56103;DHT22;41970;48.774;9.280;2023-04-03T15:18:40;8.10;85.10
56103;DHT22;41970;48.774;9.280;2023-04-03T15:21:06;8.10;82.50
56103;DHT22;41970;48.774;9.280;2023-04-03T15:23:32;8.10;86.30
56103;DHT22;41970;48.774;9.280;2023-04-03T15:25:58;8.20;83.40
56103;DHT22;41970;48.774;9.280;2023-04-03T15:28:35;7.90;81.70
56103;DHT22;41970;48.774;9.280;2023-04-03T15:31:02;7.80;86.00
56103;DHT22;41970;48.774;9.280;2023-04-03T15:33:28;7.90;86.30
56103;DHT22;41970;48.774;9.280;2023-04-03T15:35:54;8.00;84.50
56103;DHT22;41970;48.774;9.280;2023-04-03T15:38:22;8.20;84.90
56103;DHT22;41970;48.774;9.280;2023-04-03T15:40:48;8.10;85.30
56103;DHT22;41970;48.774;9.280;2023-04-03T15:43:14;8.10;87.20
56103;DHT22;41970;48.774;9.280;2023-04-03T15:45:40;8.10;83.90
56103;DHT22;41970;48.774;9.280;2023-04-03T15:48:07;8.20;84.20
56103;DHT22;41970;48.774;9.280;2023-04-03T15:50:34;8.00;80.00
56103;DHT22;41970;48.774;9.280;2023-04-03T15:53:00;7.60;80.00
56103;DHT22;41970;48.774;9.280;2023-04-03T15:55:29;7.50;81.20
56103;DHT22;41970;48.774;9.280;2023-04-03T15:57:55;7.40;80.90
56103;DHT22;41970;48.774;9.280;2023-04-03T16:00:22;7.50;84.20
56103;DHT22;41970;48.774;9.280;2023-04-03T16:02:52;7.60;81.80
56103;DHT22;41970;48.774;9.280;2023-04-03T16:05:19;7.70;80.60
56103;DHT22;41970;48.774;9.280;2023-04-03T16:07:45;7.80;80.00
56103;DHT22;41970;48.774;9.280;2023-04-03T16:10:13;7.80;81.50
56103;DHT22;41970;48.774;9.280;2023-04-03T16:12:39;7.90;80.90
56103;DHT22;41970;48.774;9.280;2023-04-03T16:15:06;8.00;82.60
56103;DHT22;41970;48.774;9.280;2023-04-03T16:17:33;8.00;82.10
56103;DHT22;41970;48.774;9.280;2023-04-03T16:20:00;8.20;83.60
56103;DHT22;41970;48.774;9.280;2023-04-03T16:22:27;8.30;79.50
56103;DHT22;41970;48.774;9.280;2023-04-03T16:24:54;8.30;80.50
56103;DHT22;41970;48.774;9.280;2023-04-03T16:27:20;8.30;80.30
56103;DHT22;41970;48.774;9.280;2023-04-03T16:29:47;8.20;79.20
56103;DHT22;41970;48.774;9.280;2023-04-03T16:32:13;8.20;77.80
56103;DHT22;41970;48.774;9.280;2023-04-03T16:34:39;8.20;78.30
56103;DHT22;41970;48.774;9.280;2023-04-03T16:37:06;8.20;82.00
56103;DHT22;41970;48.774;9.280;2023-04-03T16:39:34;8.30;79.60
56103;DHT22;41970;48.774;9.280;2023-04-03T16:42:00;8.20;76.90
56103;DHT22;41970;48.774;9.280;2023-04-03T16:44:26;8.30;80.70
56103;DHT22;41970;48.774;9.280;2023-04-03T16:46:52;8.40;83.10
56103;DHT22;41970;48.774;9.280;2023-04-03T16:49:18;8.40;81.50
56103;DHT22;41970;48.774;9.280;2023-04-03T16:51:44;8.40;81.40
56103;DHT22;41970;48.774;9.280;2023-04-03T16:54:10;8.30;78.10
56103;DHT22;41970;48.774;9.280;2023-04-03T16:56:38;8.40;81.80
56103;DHT22;41970;48.774;9.280;2023-04-03T16:59:04;8.50;81.10
56103;DHT22;41970;48.774;9.280;2023-04-03T17:01:31;8.50;81.50
56103;DHT22;41970;48.774;9.280;2023-04-03T17:03:56;8.60;79.30
56103;DHT22;41970;48.774;9.280;2023-04-03T17:06:22;8.70;80.20
56103;DHT22;41970;48.774;9.280;2023-04-03T17:08:50;8.50;78.60
56103;DHT22;41970;48.774;9.280;2023-04-03T17:11:17;8.50;79.70
56103;DHT22;41970;48.774;9.280;2023-04-03T17:13:43;8.60;81.20
56103;DHT22;41970;48.774;9.280;2023-04-03T17:16:12;8.40;77.30
56103;DHT22;41970;48.774;9.280;2023-04-03T17:18:39;8.10;78.20
56103;DHT22;41970;48.774;9.280;2023-04-03T17:21:05;7.90;78.30
56103;DHT22;41970;48.774;9.280;2023-04-03T17:23:32;7.90;79.00
56103;DHT22;41970;48.774;9.280;2023-04-03T17:26:00;7.80;79.40
56103;DHT22;41970;48.774;9.280;2023-04-03T17:28:26;7.90;82.20
56103;DHT22;41970;48.774;9.280;2023-04-03T17:31:00;8.00;82.80
56103;DHT22;41970;48.774;9.280;2023-04-03T17:33:26;8.20;81.70